Addyston, OH (45001)

11:34 PM EDT on July 29, 2016 (GMT -0400)
Miami Township | | Change Station

Elev 817 ft 39.14 °N, 84.70 °W | Updated 14 seconds ago

Overcast
Overcast
72.0 °F
Feels Like 72.0 °F
N
0.0
Wind Variable Wind from SE
Gusts 0.0 mph

Today
High -- | Low -- °F
--% Chance of Precip.
Yesterday
High -- | Low -- °F
Precip. -- in
Pressure 29.92 in
Visibility 9.0 miles
Clouds Few 1500 ft
Mostly Cloudy 9000 ft
Overcast 15000 ft
Dew Point 72 °F
Humidity 99%
Rainfall 1.27 in
Snow Depth Not available.
6:37 AM 8:52 PM
Waning Crescent, 16% visible
METAR KCVG 300252Z 02005KT 9SM FEW015 BKN090 OVC150 22/22 A2995 RMK AO2 TSE02 SLP132 LTG DSNT N-NE 60066 T02220217 52019
Pressure 29.92 in
Visibility 9.0 miles
Clouds Few 1500 ft
Mostly Cloudy 9000 ft
Overcast 15000 ft
Dew Point 72 °F
Humidity 99%
Rainfall 1.27 in
Snow Depth Not available.
6:37 AM 8:52 PM
Waning Crescent, 16% visible
METAR KCVG 300252Z 02005KT 9SM FEW015 BKN090 OVC150 22/22 A2995 RMK AO2 TSE02 SLP132 LTG DSNT N-NE 60066 T02220217 52019

10-Day Weather Forecast

Almanac

Astronomy

Jul. 29, 2016 Rise Set
Actual Time
Civil Twilight
Nautical Twilight
Astronomical Twilight
Moon
Length of Visible Light
Length of Day
Tomorrow will be .
, % of the Moon is Illuminated

Today's Extremes

State Highs State Lows

Community

WunderPhotos

Upload Photos

1,928,500 photos uploaded!

WunderBlog® & News

Nearby

Air Quality

  Air Quality AQ Index Pollutant
Not available.

Snow Depth

Station Depth Elevation

Earthquake Activity

City Distance Mag. Time & Date
Minimum magnitude displayed is 2.5.

Coastal Water Temperatures

Place Temperature

Stations

Nearby Weather Stations

Station Location Temp. Windchill Dew Point Humidity Wind Precip. Elev Updated Type
                   

Watches & Warnings

There are currently no watches in effect.